sensor_id;sensor_type;location;lat;lon;timestamp;pressure;altitude;pressure_sealevel;temperature;humidity
6094;BME280;19964;42.060;24.700;2023-09-18T00:01:03;98000.09;;;18.72;100.00
6094;BME280;19964;42.060;24.700;2023-09-18T00:03:31;98002.72;;;18.62;100.00
6094;BME280;19964;42.060;24.700;2023-09-18T00:05:58;97993.28;;;18.56;100.00
6094;BME280;19964;42.060;24.700;2023-09-18T00:08:27;97985.94;;;18.58;100.00
6094;BME280;19964;42.060;24.700;2023-09-18T00:10:54;97996.69;;;18.61;100.00
6094;BME280;19964;42.060;24.700;2023-09-18T00:13:22;98001.94;;;18.56;100.00
6094;BME280;19964;42.060;24.700;2023-09-18T00:15:49;97944.44;;;18.10;100.00
6094;BME280;19964;42.060;24.700;2023-09-18T00:18:18;97986.41;;;18.40;100.00
6094;BME280;19964;42.060;24.700;2023-09-18T00:20:45;97993.53;;;18.49;100.00
6094;BME280;19964;42.060;24.700;2023-09-18T00:23:13;97963.34;;;18.37;100.00
6094;BME280;19964;42.060;24.700;2023-09-18T00:25:42;97964.09;;;18.37;100.00
6094;BME280;19964;42.060;24.700;2023-09-18T00:28:09;97968.63;;;18.47;100.00
6094;BME280;19964;42.060;24.700;2023-09-18T00:30:38;97991.19;;;18.68;100.00
6094;BME280;19964;42.060;24.700;2023-09-18T00:33:09;97990.34;;;18.83;100.00
6094;BME280;19964;42.060;24.700;2023-09-18T00:35:35;97915.31;;;18.51;100.00
6094;BME280;19964;42.060;24.700;2023-09-18T00:38:03;98004.22;;;19.18;100.00
6094;BME280;19964;42.060;24.700;2023-09-18T00:40:30;97978.47;;;19.10;100.00
6094;BME280;19964;42.060;24.700;2023-09-18T00:42:58;97975.09;;;18.95;100.00
6094;BME280;19964;42.060;24.700;2023-09-18T00:45:25;98000.03;;;19.02;100.00
6094;BME280;19964;42.060;24.700;2023-09-18T00:47:52;97979.59;;;18.89;100.00
6094;BME280;19964;42.060;24.700;2023-09-18T00:50:19;97997.66;;;19.11;100.00
6094;BME280;19964;42.060;24.700;2023-09-18T00:52:47;98001.84;;;19.22;100.00
6094;BME280;19964;42.060;24.700;2023-09-18T00:55:15;97992.94;;;19.13;100.00
6094;BME280;19964;42.060;24.700;2023-09-18T00:57:42;98003.91;;;19.30;100.00
6094;BME280;19964;42.060;24.700;2023-09-18T01:00:13;98002.13;;;19.10;100.00
6094;BME280;19964;42.060;24.700;2023-09-18T01:02:43;97796.31;;;18.02;100.00
6094;BME280;19964;42.060;24.700;2023-09-18T01:05:10;97999.41;;;19.45;100.00
6094;BME280;19964;42.060;24.700;2023-09-18T01:07:37;97997.78;;;19.54;100.00
6094;BME280;19964;42.060;24.700;2023-09-18T01:10:05;98002.28;;;19.49;100.00
6094;BME280;19964;42.060;24.700;2023-09-18T01:12:40;98009.34;;;19.59;100.00
6094;BME280;19964;42.060;24.700;2023-09-18T01:15:16;98014.56;;;19.74;100.00
6094;BME280;19964;42.060;24.700;2023-09-18T01:17:44;98014.75;;;19.87;100.00
6094;BME280;19964;42.060;24.700;2023-09-18T01:20:12;97995.59;;;19.77;100.00
6094;BME280;19964;42.060;24.700;2023-09-18T01:22:40;97989.53;;;19.81;100.00
6094;BME280;19964;42.060;24.700;2023-09-18T01:25:09;97983.25;;;19.77;100.00
6094;BME280;19964;42.060;24.700;2023-09-18T01:27:36;97984.66;;;19.54;100.00
6094;BME280;19964;42.060;24.700;2023-09-18T01:30:03;98007.44;;;19.79;100.00
6094;BME280;19964;42.060;24.700;2023-09-18T01:32:32;98005.25;;;19.91;100.00
6094;BME280;19964;42.060;24.700;2023-09-18T01:35:04;97974.03;;;19.75;100.00
6094;BME280;19964;42.060;24.700;2023-09-18T01:37:34;98005.22;;;19.96;100.00
6094;BME280;19964;42.060;24.700;2023-09-18T01:40:06;98013.34;;;20.00;100.00
6094;BME280;19964;42.060;24.700;2023-09-18T01:42:34;97993.13;;;19.95;100.00
6094;BME280;19964;42.060;24.700;2023-09-18T01:45:02;97981.88;;;19.85;100.00
6094;BME280;19964;42.060;24.700;2023-09-18T01:47:30;97986.91;;;19.76;100.00
6094;BME280;19964;42.060;24.700;2023-09-18T01:49:57;98006.03;;;19.92;100.00
6094;BME280;19964;42.060;24.700;2023-09-18T01:52:24;98013.34;;;20.00;100.00
6094;BME280;19964;42.060;24.700;2023-09-18T01:54:51;98004.66;;;20.04;100.00
6094;BME280;19964;42.060;24.700;2023-09-18T01:57:19;98013.34;;;20.05;100.00
6094;BME280;19964;42.060;24.700;2023-09-18T01:59:46;98005.44;;;20.05;100.00
6094;BME280;19964;42.060;24.700;2023-09-18T02:02:13;97994.94;;;20.00;100.00
6094;BME280;19964;42.060;24.700;2023-09-18T02:04:40;97999.09;;;20.06;100.00
6094;BME280;19964;42.060;24.700;2023-09-18T02:07:08;98008.66;;;19.97;100.00
6094;BME280;19964;42.060;24.700;2023-09-18T02:09:35;98008.94;;;19.90;100.00
6094;BME280;19964;42.060;24.700;2023-09-18T02:12:03;98015.78;;;19.91;100.00
6094;BME280;19964;42.060;24.700;2023-09-18T02:14:31;97990.38;;;19.72;100.00
6094;BME280;19964;42.060;24.700;2023-09-18T02:16:59;98010.06;;;19.79;100.00
6094;BME280;19964;42.060;24.700;2023-09-18T02:19:26;98009.53;;;19.72;100.00
6094;BME280;19964;42.060;24.700;2023-09-18T02:21:56;98008.47;;;19.83;100.00
6094;BME280;19964;42.060;24.700;2023-09-18T02:24:23;97968.63;;;19.51;100.00
6094;BME280;19964;42.060;24.700;2023-09-18T02:26:50;98008.22;;;19.75;100.00
6094;BME280;19964;42.060;24.700;2023-09-18T02:29:17;98013.44;;;19.80;100.00
6094;BME280;19964;42.060;24.700;2023-09-18T02:31:45;98003.91;;;19.35;100.00
6094;BME280;19964;42.060;24.700;2023-09-18T02:34:12;98007.09;;;19.27;100.00
6094;BME280;19964;42.060;24.700;2023-09-18T02:36:39;98012.31;;;19.42;100.00
6094;BME280;19964;42.060;24.700;2023-09-18T02:39:06;98012.56;;;19.45;100.00
6094;BME280;19964;42.060;24.700;2023-09-18T02:41:33;98017.56;;;19.32;100.00
6094;BME280;19964;42.060;24.700;2023-09-18T02:44:00;98006.03;;;19.28;100.00
6094;BME280;19964;42.060;24.700;2023-09-18T02:46:27;98015.47;;;19.44;100.00
6094;BME280;19964;42.060;24.700;2023-09-18T02:48:56;98022.28;;;19.50;100.00
6094;BME280;19964;42.060;24.700;2023-09-18T02:51:23;98001.56;;;19.33;100.00
6094;BME280;19964;42.060;24.700;2023-09-18T02:53:50;98026.97;;;19.58;100.00
6094;BME280;19964;42.060;24.700;2023-09-18T02:56:17;98021.44;;;19.54;100.00
6094;BME280;19964;42.060;24.700;2023-09-18T02:58:44;98022.25;;;19.60;100.00
6094;BME280;19964;42.060;24.700;2023-09-18T03:01:10;98022.72;;;19.67;100.00
6094;BME280;19964;42.060;24.700;2023-09-18T03:03:37;98031.94;;;19.70;100.00
6094;BME280;19964;42.060;24.700;2023-09-18T03:06:08;98031.13;;;19.69;100.00
6094;BME280;19964;42.060;24.700;2023-09-18T03:08:35;98028.50;;;19.69;100.00
6094;BME280;19964;42.060;24.700;2023-09-18T03:11:02;98004.91;;;19.54;100.00
6094;BME280;19964;42.060;24.700;2023-09-18T03:13:30;98025.94;;;19.54;100.00
6094;BME280;19964;42.060;24.700;2023-09-18T03:15:57;98021.75;;;19.48;100.00
6094;BME280;19964;42.060;24.700;2023-09-18T03:18:24;98002.34;;;19.24;100.00
6094;BME280;19964;42.060;24.700;2023-09-18T03:20:51;98024.94;;;19.30;100.00
6094;BME280;19964;42.060;24.700;2023-09-18T03:23:19;98024.38;;;19.43;100.00
6094;BME280;19964;42.060;24.700;2023-09-18T03:25:46;98015.72;;;19.27;100.00
6094;BME280;19964;42.060;24.700;2023-09-18T03:28:13;98027.84;;;19.38;100.00
6094;BME280;19964;42.060;24.700;2023-09-18T03:30:40;98026.75;;;19.49;100.00
6094;BME280;19964;42.060;24.700;2023-09-18T03:33:07;98006.25;;;19.41;100.00
6094;BME280;19964;42.060;24.700;2023-09-18T03:35:45;98031.19;;;19.49;100.00
6094;BME280;19964;42.060;24.700;2023-09-18T03:38:12;98022.78;;;19.52;100.00
6094;BME280;19964;42.060;24.700;2023-09-18T03:40:40;98025.94;;;19.49;100.00
6094;BME280;19964;42.060;24.700;2023-09-18T03:43:09;97923.69;;;18.79;100.00
6094;BME280;19964;42.060;24.700;2023-09-18T03:45:36;98023.34;;;19.39;100.00
6094;BME280;19964;42.060;24.700;2023-09-18T03:48:03;98017.56;;;19.42;100.00
6094;BME280;19964;42.060;24.700;2023-09-18T03:50:30;98019.66;;;19.45;100.00
6094;BME280;19964;42.060;24.700;2023-09-18T03:52:57;98027.03;;;19.48;100.00
6094;BME280;19964;42.060;24.700;2023-09-18T03:55:24;98034.91;;;19.43;100.00
6094;BME280;19964;42.060;24.700;2023-09-18T03:57:53;98019.69;;;19.30;100.00
6094;BME280;19964;42.060;24.700;2023-09-18T04:00:21;98032.03;;;19.29;100.00
6094;BME280;19964;42.060;24.700;2023-09-18T04:02:48;97851.84;;;18.04;100.00
6094;BME280;19964;42.060;24.700;2023-09-18T04:05:15;98032.31;;;19.18;100.00
6094;BME280;19964;42.060;24.700;2023-09-18T04:07:42;98027.06;;;19.08;100.00
6094;BME280;19964;42.060;24.700;2023-09-18T04:10:12;97988.78;;;18.92;100.00
6094;BME280;19964;42.060;24.700;2023-09-18T04:12:48;98015.53;;;19.09;100.00
6094;BME280;19964;42.060;24.700;2023-09-18T04:15:17;98032.56;;;19.26;100.00
6094;BME280;19964;42.060;24.700;2023-09-18T04:17:44;98038.59;;;19.32;100.00
6094;BME280;19964;42.060;24.700;2023-09-18T04:20:11;98032.81;;;19.35;100.00
6094;BME280;19964;42.060;24.700;2023-09-18T04:22:46;98034.94;;;19.33;100.00
6094;BME280;19964;42.060;24.700;2023-09-18T04:25:15;98007.88;;;19.17;100.00
6094;BME280;19964;42.060;24.700;2023-09-18T04:27:42;98014.44;;;19.30;100.00
6094;BME280;19964;42.060;24.700;2023-09-18T04:30:09;98042.25;;;19.46;100.00
6094;BME280;19964;42.060;24.700;2023-09-18T04:32:38;98041.22;;;19.37;100.00
6094;BME280;19964;42.060;24.700;2023-09-18T04:35:06;98039.91;;;19.44;100.00
6094;BME280;19964;42.060;24.700;2023-09-18T04:37:36;98031.25;;;19.34;100.00
6094;BME280;19964;42.060;24.700;2023-09-18T04:40:05;98039.94;;;19.24;100.00
6094;BME280;19964;42.060;24.700;2023-09-18T04:42:35;98031.25;;;19.29;100.00
6094;BME280;19964;42.060;24.700;2023-09-18T04:45:02;97985.09;;;18.98;100.00
6094;BME280;19964;42.060;24.700;2023-09-18T04:47:29;98011.03;;;19.19;100.00
6094;BME280;19964;42.060;24.700;2023-09-18T04:49:57;98037.81;;;19.26;100.00
6094;BME280;19964;42.060;24.700;2023-09-18T04:52:24;98037.28;;;19.39;100.00
6094;BME280;19964;42.060;24.700;2023-09-18T04:54:51;98037.25;;;19.49;100.00
6094;BME280;19964;42.060;24.700;2023-09-18T04:57:19;98034.66;;;19.39;100.00
6094;BME280;19964;42.060;24.700;2023-09-18T04:59:47;98030.16;;;19.50;100.00
6094;BME280;19964;42.060;24.700;2023-09-18T05:02:14;98036.69;;;19.63;100.00
6094;BME280;19964;42.060;24.700;2023-09-18T05:04:41;98027.22;;;19.57;100.00
6094;BME280;19964;42.060;24.700;2023-09-18T05:07:10;98036.66;;;19.68;100.00
6094;BME280;19964;42.060;24.700;2023-09-18T05:09:36;98035.84;;;19.77;100.00
6094;BME280;19964;42.060;24.700;2023-09-18T05:12:05;98039.50;;;19.81;100.00
6094;BME280;19964;42.060;24.700;2023-09-18T05:14:34;98046.13;;;19.74;100.00
6094;BME280;19964;42.060;24.700;2023-09-18T05:17:01;98049.50;;;19.79;100.00
6094;BME280;19964;42.060;24.700;2023-09-18T05:19:27;98052.00;;;19.35;100.00
6094;BME280;19964;42.060;24.700;2023-09-18T05:21:54;98058.00;;;19.56;100.00
6094;BME280;19964;42.060;24.700;2023-09-18T05:24:22;98049.00;;;19.72;100.00
6094;BME280;19964;42.060;24.700;2023-09-18T05:26:52;98046.03;;;19.89;100.00
6094;BME280;19964;42.060;24.700;2023-09-18T05:29:19;98047.97;;;19.63;100.00
6094;BME280;19964;42.060;24.700;2023-09-18T05:31:46;98042.53;;;19.39;100.00
6094;BME280;19964;42.060;24.700;2023-09-18T05:34:13;98038.06;;;19.40;100.00
6094;BME280;19964;42.060;24.700;2023-09-18T05:36:40;98032.03;;;19.24;100.00
6094;BME280;19964;42.060;24.700;2023-09-18T05:39:07;98041.22;;;19.37;100.00
6094;BME280;19964;42.060;24.700;2023-09-18T05:41:38;98015.44;;;19.49;100.00
6094;BME280;19964;42.060;24.700;2023-09-18T05:44:05;98036.91;;;19.71;100.00
6094;BME280;19964;42.060;24.700;2023-09-18T05:46:33;98022.50;;;19.59;100.00
6094;BME280;19964;42.060;24.700;2023-09-18T05:49:00;98023.03;;;19.56;100.00
6094;BME280;19964;42.060;24.700;2023-09-18T05:51:27;98042.97;;;19.72;100.00
6094;BME280;19964;42.060;24.700;2023-09-18T05:53:54;98047.53;;;20.05;100.00
6094;BME280;19964;42.060;24.700;2023-09-18T05:56:21;98048.22;;;20.25;99.48
6094;BME280;19964;42.060;24.700;2023-09-18T05:58:50;98048.84;;;20.51;96.78
6094;BME280;19964;42.060;24.700;2023-09-18T06:01:18;98007.03;;;20.45;96.41
6094;BME280;19964;42.060;24.700;2023-09-18T06:03:45;98061.22;;;20.84;94.47
6094;BME280;19964;42.060;24.700;2023-09-18T06:06:14;98057.66;;;21.04;92.08
6094;BME280;19964;42.060;24.700;2023-09-18T06:08:41;98059.91;;;21.15;91.10
6094;BME280;19964;42.060;24.700;2023-09-18T06:11:07;98054.94;;;21.38;91.97
6094;BME280;19964;42.060;24.700;2023-09-18T06:13:34;98058.47;;;21.52;88.60
6094;BME280;19964;42.060;24.700;2023-09-18T06:16:05;98069.59;;;21.49;85.21
6094;BME280;19964;42.060;24.700;2023-09-18T06:18:33;98065.84;;;21.26;86.78
6094;BME280;19964;42.060;24.700;2023-09-18T06:21:01;98071.53;;;21.38;86.18
6094;BME280;19964;42.060;24.700;2023-09-18T06:23:28;98065.91;;;21.21;88.11
6094;BME280;19964;42.060;24.700;2023-09-18T06:25:55;98068.25;;;21.51;89.25
6094;BME280;19964;42.060;24.700;2023-09-18T06:28:23;98073.13;;;21.10;87.99
6094;BME280;19964;42.060;24.700;2023-09-18T06:30:51;98045.78;;;20.73;89.98
6094;BME280;19964;42.060;24.700;2023-09-18T06:33:20;98067.31;;;20.80;92.17
6094;BME280;19964;42.060;24.700;2023-09-18T06:35:47;98002.03;;;20.43;91.14
6094;BME280;19964;42.060;24.700;2023-09-18T06:38:15;98082.47;;;20.93;91.61
6094;BME280;19964;42.060;24.700;2023-09-18T06:40:41;98076.22;;;20.89;90.99
6094;BME280;19964;42.060;24.700;2023-09-18T06:43:09;98076.63;;;21.01;90.56
6094;BME280;19964;42.060;24.700;2023-09-18T06:45:36;98078.56;;;20.90;91.75
6094;BME280;19964;42.060;24.700;2023-09-18T06:48:04;98092.13;;;21.36;91.27
6094;BME280;19964;42.060;24.700;2023-09-18T06:50:33;98083.56;;;21.49;92.07
6094;BME280;19964;42.060;24.700;2023-09-18T06:53:00;98083.94;;;21.38;90.09
6094;BME280;19964;42.060;24.700;2023-09-18T06:55:27;98085.44;;;21.44;88.21
6094;BME280;19964;42.060;24.700;2023-09-18T06:57:54;98072.19;;;21.25;89.94
6094;BME280;19964;42.060;24.700;2023-09-18T07:00:21;98061.22;;;21.42;91.22
6094;BME280;19964;42.060;24.700;2023-09-18T07:02:48;98080.19;;;21.67;84.61
6094;BME280;19964;42.060;24.700;2023-09-18T07:05:15;98073.75;;;21.78;82.92
6094;BME280;19964;42.060;24.700;2023-09-18T07:07:44;98085.53;;;21.62;84.35
6094;BME280;19964;42.060;24.700;2023-09-18T07:10:11;98077.25;;;21.92;83.25
6094;BME280;19964;42.060;24.700;2023-09-18T07:12:38;98074.28;;;22.55;82.55
6094;BME280;19964;42.060;24.700;2023-09-18T07:15:06;98087.66;;;22.63;76.35
6094;BME280;19964;42.060;24.700;2023-09-18T07:17:33;98075.88;;;22.56;76.86
6094;BME280;19964;42.060;24.700;2023-09-18T07:20:02;98063.81;;;22.68;74.46
6094;BME280;19964;42.060;24.700;2023-09-18T07:22:35;98092.59;;;23.02;74.12
6094;BME280;19964;42.060;24.700;2023-09-18T07:25:06;98099.56;;;23.71;70.96
6094;BME280;19964;42.060;24.700;2023-09-18T07:27:33;98098.41;;;23.91;69.79
6094;BME280;19964;42.060;24.700;2023-09-18T07:30:04;98098.88;;;23.93;71.21
6094;BME280;19964;42.060;24.700;2023-09-18T07:32:31;98084.28;;;23.81;69.63
6094;BME280;19964;42.060;24.700;2023-09-18T07:34:58;98101.63;;;23.74;69.23
6094;BME280;19964;42.060;24.700;2023-09-18T07:37:25;98101.53;;;23.52;69.49
6094;BME280;19964;42.060;24.700;2023-09-18T07:39:53;98104.97;;;23.20;71.77
6094;BME280;19964;42.060;24.700;2023-09-18T07:42:24;98103.22;;;23.75;69.16
6094;BME280;19964;42.060;24.700;2023-09-18T07:44:51;98106.81;;;23.93;70.04
6094;BME280;19964;42.060;24.700;2023-09-18T07:47:18;98104.88;;;24.12;67.89
6094;BME280;19964;42.060;24.700;2023-09-18T07:49:45;98110.72;;;24.36;66.24
6094;BME280;19964;42.060;24.700;2023-09-18T07:52:12;98107.22;;;24.85;65.17
6094;BME280;19964;42.060;24.700;2023-09-18T07:54:39;98106.34;;;24.53;63.95
6094;BME280;19964;42.060;24.700;2023-09-18T07:57:06;98108.50;;;24.02;65.40
6094;BME280;19964;42.060;24.700;2023-09-18T07:59:36;98103.00;;;23.44;66.93
6094;BME280;19964;42.060;24.700;2023-09-18T08:02:04;98021.94;;;23.75;67.17
6094;BME280;19964;42.060;24.700;2023-09-18T08:04:32;98098.25;;;24.23;64.39
6094;BME280;19964;42.060;24.700;2023-09-18T08:06:58;98100.22;;;24.31;66.31
6094;BME280;19964;42.060;24.700;2023-09-18T08:09:25;98094.56;;;23.83;67.52
6094;BME280;19964;42.060;24.700;2023-09-18T08:11:54;98094.06;;;24.22;65.77
6094;BME280;19964;42.060;24.700;2023-09-18T08:14:21;98098.00;;;24.82;61.23
6094;BME280;19964;42.060;24.700;2023-09-18T08:16:56;98024.72;;;24.20;60.92
6094;BME280;19964;42.060;24.700;2023-09-18T08:19:23;98094.19;;;24.03;64.01
6094;BME280;19964;42.060;24.700;2023-09-18T08:21:52;98084.06;;;23.37;65.21
6094;BME280;19964;42.060;24.700;2023-09-18T08:24:19;98093.28;;;23.94;64.70
6094;BME280;19964;42.060;24.700;2023-09-18T08:26:46;98083.41;;;23.59;65.23
6094;BME280;19964;42.060;24.700;2023-09-18T08:29:13;98081.00;;;23.30;64.78
6094;BME280;19964;42.060;24.700;2023-09-18T08:31:40;98085.94;;;23.05;66.35
6094;BME280;19964;42.060;24.700;2023-09-18T08:34:08;98078.16;;;22.81;66.39
6094;BME280;19964;42.060;24.700;2023-09-18T08:36:35;98006.84;;;23.08;66.45
6094;BME280;19964;42.060;24.700;2023-09-18T08:39:03;98087.41;;;23.83;62.90
6094;BME280;19964;42.060;24.700;2023-09-18T08:41:32;98083.88;;;24.15;62.90
6094;BME280;19964;42.060;24.700;2023-09-18T08:44:01;97994.28;;;23.68;61.11
6094;BME280;19964;42.060;24.700;2023-09-18T08:46:29;98008.75;;;23.98;60.01
6094;BME280;19964;42.060;24.700;2023-09-18T08:48:56;98082.50;;;24.76;59.51
6094;BME280;19964;42.060;24.700;2023-09-18T08:51:25;98076.53;;;24.12;61.72
6094;BME280;19964;42.060;24.700;2023-09-18T08:53:53;98051.03;;;23.35;61.72
6094;BME280;19964;42.060;24.700;2023-09-18T08:56:21;98084.28;;;23.95;61.46
6094;BME280;19964;42.060;24.700;2023-09-18T08:58:48;98078.75;;;24.19;60.38
6094;BME280;19964;42.060;24.700;2023-09-18T09:01:15;98088.69;;;24.85;58.73
6094;BME280;19964;42.060;24.700;2023-09-18T09:03:43;98081.09;;;25.53;59.22
6094;BME280;19964;42.060;24.700;2023-09-18T09:06:12;98061.63;;;25.05;57.31
6094;BME280;19964;42.060;24.700;2023-09-18T09:08:40;98085.22;;;25.37;56.58
6094;BME280;19964;42.060;24.700;2023-09-18T09:11:07;98080.34;;;25.30;56.50
6094;BME280;19964;42.060;24.700;2023-09-18T09:13:34;98060.16;;;25.43;55.31
6094;BME280;19964;42.060;24.700;2023-09-18T09:16:01;98071.72;;;25.55;56.05
6094;BME280;19964;42.060;24.700;2023-09-18T09:18:29;98074.75;;;25.71;55.46
6094;BME280;19964;42.060;24.700;2023-09-18T09:20:58;98073.47;;;26.42;54.93
6094;BME280;19964;42.060;24.700;2023-09-18T09:23:25;98068.22;;;25.77;53.00
6094;BME280;19964;42.060;24.700;2023-09-18T09:25:54;98002.66;;;25.38;52.85
6094;BME280;19964;42.060;24.700;2023-09-18T09:28:31;98053.63;;;26.31;53.47
6094;BME280;19964;42.060;24.700;2023-09-18T09:31:02;98045.28;;;25.98;53.39
6094;BME280;19964;42.060;24.700;2023-09-18T09:33:29;98056.94;;;25.02;54.43
6094;BME280;19964;42.060;24.700;2023-09-18T09:35:56;98052.38;;;24.14;56.80
6094;BME280;19964;42.060;24.700;2023-09-18T09:38:28;98068.91;;;24.33;57.08
6094;BME280;19964;42.060;24.700;2023-09-18T09:40:58;97984.81;;;23.67;57.08
6094;BME280;19964;42.060;24.700;2023-09-18T09:43:26;97976.00;;;23.58;57.43
6094;BME280;19964;42.060;24.700;2023-09-18T09:45:57;98051.03;;;25.05;56.00
6094;BME280;19964;42.060;24.700;2023-09-18T09:48:26;98046.66;;;25.00;54.67
6094;BME280;19964;42.060;24.700;2023-09-18T09:50:57;98058.09;;;25.40;52.92
6094;BME280;19964;42.060;24.700;2023-09-18T09:53:43;98048.59;;;26.04;51.62
6094;BME280;19964;42.060;24.700;2023-09-18T09:56:14;98058.56;;;25.98;51.35
6094;BME280;19964;42.060;24.700;2023-09-18T09:59:04;98045.00;;;26.60;51.13
6094;BME280;19964;42.060;24.700;2023-09-18T10:01:34;98045.34;;;26.58;48.89
6094;BME280;19964;42.060;24.700;2023-09-18T10:04:03;98041.56;;;26.59;48.02
6094;BME280;19964;42.060;24.700;2023-09-18T10:06:34;98049.84;;;26.06;50.60
6094;BME280;19964;42.060;24.700;2023-09-18T10:09:03;98041.88;;;26.58;52.73
6094;BME280;19964;42.060;24.700;2023-09-18T10:11:33;98033.09;;;25.97;50.95
6094;BME280;19964;42.060;24.700;2023-09-18T10:14:06;98045.66;;;26.48;51.11
6094;BME280;19964;42.060;24.700;2023-09-18T10:16:36;98035.00;;;27.66;47.63
6094;BME280;19964;42.060;24.700;2023-09-18T10:19:14;98008.75;;;26.38;49.18
6094;BME280;19964;42.060;24.700;2023-09-18T10:21:52;98030.78;;;27.27;49.66
6094;BME280;19964;42.060;24.700;2023-09-18T10:24:23;98038.63;;;26.52;48.05
6094;BME280;19964;42.060;24.700;2023-09-18T10:26:55;98014.06;;;26.04;48.95
6094;BME280;19964;42.060;24.700;2023-09-18T10:29:24;98022.34;;;26.28;48.59
6094;BME280;19964;42.060;24.700;2023-09-18T10:31:52;98027.81;;;26.74;48.86
6094;BME280;19964;42.060;24.700;2023-09-18T10:34:20;98021.88;;;27.23;47.44
6094;BME280;19964;42.060;24.700;2023-09-18T10:36:48;98020.06;;;27.74;46.98
6094;BME280;19964;42.060;24.700;2023-09-18T10:39:16;98021.06;;;26.85;46.83
6094;BME280;19964;42.060;24.700;2023-09-18T10:41:47;98008.50;;;26.94;47.08
6094;BME280;19964;42.060;24.700;2023-09-18T10:44:15;97984.50;;;27.11;46.06
6094;BME280;19964;42.060;24.700;2023-09-18T10:46:43;98004.94;;;27.28;44.94
6094;BME280;19964;42.060;24.700;2023-09-18T10:49:10;98007.78;;;26.51;45.97
6094;BME280;19964;42.060;24.700;2023-09-18T10:51:37;98002.97;;;26.10;47.34
6094;BME280;19964;42.060;24.700;2023-09-18T10:54:07;97994.81;;;26.50;46.78
6094;BME280;19964;42.060;24.700;2023-09-18T10:56:35;97998.41;;;26.54;46.20
6094;BME280;19964;42.060;24.700;2023-09-18T10:59:03;97990.91;;;26.47;47.37
6094;BME280;19964;42.060;24.700;2023-09-18T11:01:34;98000.59;;;26.52;47.87
6094;BME280;19964;42.060;24.700;2023-09-18T11:04:04;98001.41;;;26.35;46.65
6094;BME280;19964;42.060;24.700;2023-09-18T11:07:00;98001.25;;;26.14;47.45
6094;BME280;19964;42.060;24.700;2023-09-18T11:09:29;97994.53;;;26.42;47.00
6094;BME280;19964;42.060;24.700;2023-09-18T11:12:02;97986.53;;;27.14;44.74
6094;BME280;19964;42.060;24.700;2023-09-18T11:14:41;97970.69;;;27.76;44.74
6094;BME280;19964;42.060;24.700;2023-09-18T11:17:34;97987.81;;;27.08;44.68
6094;BME280;19964;42.060;24.700;2023-09-18T11:20:16;97983.69;;;26.65;45.64
6094;BME280;19964;42.060;24.700;2023-09-18T11:22:47;97980.88;;;26.61;45.73
6094;BME280;19964;42.060;24.700;2023-09-18T11:25:34;97807.53;;;25.15;47.53
6094;BME280;19964;42.060;24.700;2023-09-18T11:28:03;97970.28;;;26.35;46.73
6094;BME280;19964;42.060;24.700;2023-09-18T11:30:33;97973.56;;;26.41;45.12
6094;BME280;19964;42.060;24.700;2023-09-18T11:33:03;97969.03;;;25.99;45.54
6094;BME280;19964;42.060;24.700;2023-09-18T11:35:31;97975.94;;;26.42;46.52
6094;BME280;19964;42.060;24.700;2023-09-18T11:38:08;97980.78;;;26.23;44.97
6094;BME280;19964;42.060;24.700;2023-09-18T11:40:38;97926.84;;;25.89;45.92
6094;BME280;19964;42.060;24.700;2023-09-18T11:43:23;97951.53;;;26.32;44.41
6094;BME280;19964;42.060;24.700;2023-09-18T11:45:56;97978.25;;;26.53;45.10
6094;BME280;19964;42.060;24.700;2023-09-18T11:48:26;97973.06;;;26.73;44.72
6094;BME280;19964;42.060;24.700;2023-09-18T11:50:57;97970.84;;;26.67;43.83
6094;BME280;19964;42.060;24.700;2023-09-18T11:53:26;97932.31;;;26.35;46.43
6094;BME280;19964;42.060;24.700;2023-09-18T11:55:53;97962.19;;;26.06;44.73
6094;BME280;19964;42.060;24.700;2023-09-18T11:58:21;97955.16;;;26.02;44.13
6094;BME280;19964;42.060;24.700;2023-09-18T12:00:49;97975.63;;;26.18;44.15
6094;BME280;19964;42.060;24.700;2023-09-18T12:03:18;97963.41;;;26.00;43.26
6094;BME280;19964;42.060;24.700;2023-09-18T12:05:54;97849.50;;;25.30;44.51
6094;BME280;19964;42.060;24.700;2023-09-18T12:08:22;97960.91;;;26.38;44.79
6094;BME280;19964;42.060;24.700;2023-09-18T12:10:53;97969.81;;;25.99;44.06
6094;BME280;19964;42.060;24.700;2023-09-18T12:13:20;97858.41;;;25.34;44.27
6094;BME280;19964;42.060;24.700;2023-09-18T12:15:48;97919.81;;;25.58;43.79
6094;BME280;19964;42.060;24.700;2023-09-18T12:18:15;97949.03;;;25.76;44.24
6094;BME280;19964;42.060;24.700;2023-09-18T12:20:47;97930.63;;;25.71;44.88
6094;BME280;19964;42.060;24.700;2023-09-18T12:23:16;97946.06;;;25.69;45.60
6094;BME280;19964;42.060;24.700;2023-09-18T12:25:45;97852.50;;;25.37;44.39
6094;BME280;19964;42.060;24.700;2023-09-18T12:28:14;97930.78;;;26.08;43.92
6094;BME280;19964;42.060;24.700;2023-09-18T12:30:42;97940.31;;;26.09;44.68
6094;BME280;19964;42.060;24.700;2023-09-18T12:33:09;97938.56;;;25.79;44.43
6094;BME280;19964;42.060;24.700;2023-09-18T12:35:37;97933.44;;;26.08;44.55
6094;BME280;19964;42.060;24.700;2023-09-18T12:38:14;97931.06;;;26.32;44.19
6094;BME280;19964;42.060;24.700;2023-09-18T12:40:42;97934.72;;;25.29;44.54
6094;BME280;19964;42.060;24.700;2023-09-18T12:43:12;97934.66;;;25.59;44.68
6094;BME280;19964;42.060;24.700;2023-09-18T12:45:40;97907.72;;;25.27;44.36
6094;BME280;19964;42.060;24.700;2023-09-18T12:48:07;97923.28;;;25.11;46.41
6094;BME280;19964;42.060;24.700;2023-09-18T12:50:35;97923.44;;;25.15;45.66
6094;BME280;19964;42.060;24.700;2023-09-18T12:53:07;97921.25;;;25.08;45.70
6094;BME280;19964;42.060;24.700;2023-09-18T12:55:34;97915.88;;;25.39;46.31
6094;BME280;19964;42.060;24.700;2023-09-18T12:58:03;97919.13;;;25.27;45.08
6094;BME280;19964;42.060;24.700;2023-09-18T13:00:33;97907.00;;;25.69;45.66
6094;BME280;19964;42.060;24.700;2023-09-18T13:03:01;97911.25;;;25.87;44.61